createdAt,value
2019-02-12T00:00:42.725Z,3.10
2019-02-12T00:03:23.587Z,3.10
2019-02-12T00:06:04.469Z,3.00
2019-02-12T00:08:45.285Z,3.10
2019-02-12T00:11:26.144Z,3.10
2019-02-12T00:16:56.413Z,3.00
2019-02-12T00:19:25.408Z,3.00
2019-02-12T00:22:13.577Z,3.00
2019-02-12T00:24:54.319Z,2.90
2019-02-12T00:27:35.040Z,3.00
2019-02-12T00:30:04.530Z,3.00
2019-02-12T00:32:52.742Z,3.00
2019-02-12T00:35:33.684Z,2.90
2019-02-12T00:38:14.377Z,2.90
2019-02-12T00:40:55.578Z,2.90
2019-02-12T00:43:36.359Z,2.90
2019-02-12T00:46:05.408Z,2.90
2019-02-12T00:48:53.632Z,2.90
2019-02-12T00:51:34.399Z,2.90
2019-02-12T00:54:15.031Z,2.90
2019-02-12T00:56:56.077Z,3.00
2019-02-12T00:59:37.042Z,3.00
2019-02-12T01:02:18.104Z,3.00
2019-02-12T01:04:58.863Z,3.00
2019-02-12T01:07:40.171Z,3.00
2019-02-12T01:10:20.792Z,2.90
2019-02-12T01:13:01.348Z,2.90
2019-02-12T01:15:42.077Z,2.80
2019-02-12T01:18:22.917Z,2.80
2019-02-12T01:21:03.766Z,2.80
2019-02-12T01:23:44.848Z,2.90
2019-02-12T01:26:25.667Z,2.80
2019-02-12T01:29:06.464Z,2.90
2019-02-12T01:31:47.397Z,2.80
2019-02-12T01:34:28.117Z,2.80
2019-02-12T01:37:09.428Z,2.80
2019-02-12T01:39:49.842Z,2.80
2019-02-12T01:42:30.877Z,2.80
2019-02-12T01:45:11.913Z,2.70
2019-02-12T01:47:53.137Z,2.70
2019-02-12T01:50:33.807Z,2.70
2019-02-12T01:53:14.169Z,2.70
2019-02-12T01:55:55.040Z,2.70
2019-02-12T01:58:35.814Z,2.80
2019-02-12T02:01:16.141Z,2.80
2019-02-12T02:03:56.874Z,2.90
2019-02-12T02:06:37.595Z,2.90
2019-02-12T02:09:18.427Z,2.90
2019-02-12T02:11:59.332Z,2.90
2019-02-12T02:14:40.091Z,2.90
2019-02-12T02:17:09.079Z,2.90
2019-02-12T02:19:58.202Z,2.80
2019-02-12T02:22:46.278Z,2.80
2019-02-12T02:25:27.433Z,2.90
2019-02-12T02:28:08.384Z,2.80
2019-02-12T02:30:49.017Z,2.80
2019-02-12T02:33:29.732Z,2.70
2019-02-12T02:36:10.408Z,2.70
2019-02-12T02:38:51.133Z,2.80
2019-02-12T02:41:32.537Z,2.80
2019-02-12T02:44:13.273Z,2.70
2019-02-12T02:46:53.953Z,2.70
2019-02-12T02:49:34.907Z,2.60
2019-02-12T02:52:15.589Z,2.60
2019-02-12T02:54:56.418Z,2.60
2019-02-12T02:57:25.445Z,2.70
2019-02-12T03:00:13.603Z,2.70
2019-02-12T03:03:01.769Z,2.60
2019-02-12T03:05:43.132Z,2.60
2019-02-12T03:08:24.042Z,2.50
2019-02-12T03:16:22.618Z,2.70
2019-02-12T03:19:03.309Z,2.70
2019-02-12T03:21:44.105Z,2.60
2019-02-12T03:24:25.081Z,2.60
2019-02-12T03:27:05.804Z,2.50
2019-02-12T03:29:34.852Z,2.50
2019-02-12T03:32:23.083Z,2.40
2019-02-12T03:35:03.919Z,2.40
2019-02-12T03:37:44.857Z,2.30
2019-02-12T03:40:25.790Z,2.30
2019-02-12T03:43:06.943Z,2.20
2019-02-12T03:45:35.971Z,2.20
2019-02-12T03:48:24.136Z,2.10
2019-02-12T03:51:05.408Z,2.10
2019-02-12T03:53:46.223Z,2.00
2019-02-12T03:56:15.273Z,1.90
2019-02-12T03:59:03.460Z,1.90
2019-02-12T04:01:44.244Z,1.80
2019-02-12T04:04:25.357Z,1.80
2019-02-12T04:07:06.308Z,1.80
2019-02-12T04:09:47.360Z,1.70
2019-02-12T04:12:28.386Z,1.70
2019-02-12T04:15:08.841Z,1.60
2019-02-12T04:17:49.594Z,1.60
2019-02-12T04:20:30.751Z,1.50
2019-02-12T04:23:11.840Z,1.40
2019-02-12T04:25:52.799Z,1.40
2019-02-12T04:28:36.964Z,1.40
2019-02-12T04:31:17.677Z,1.40
2019-02-12T04:33:58.284Z,1.30
2019-02-12T04:36:39.346Z,1.30
2019-02-12T04:39:20.258Z,1.30
2019-02-12T04:42:01.128Z,1.30
2019-02-12T04:44:41.773Z,1.30
2019-02-12T04:47:22.696Z,1.30
2019-02-12T04:50:03.902Z,1.20
2019-02-12T04:52:44.987Z,1.20
2019-02-12T04:55:26.212Z,1.10
2019-02-12T04:58:07.010Z,1.10
2019-02-12T05:00:48.290Z,1.00
2019-02-12T05:03:29.273Z,0.90
2019-02-12T05:06:10.099Z,0.90
2019-02-12T05:08:50.912Z,0.90
2019-02-12T05:11:32.141Z,0.90
2019-02-12T05:14:12.890Z,0.80
2019-02-12T05:16:53.724Z,0.70
2019-02-12T05:19:34.768Z,0.60
2019-02-12T05:22:15.596Z,0.60
2019-02-12T05:24:56.307Z,0.60
2019-02-12T05:27:37.209Z,0.60
2019-02-12T05:30:19.247Z,0.60
2019-02-12T05:33:00.573Z,0.60
2019-02-12T05:35:41.361Z,0.50
2019-02-12T05:38:10.383Z,0.40
2019-02-12T05:40:58.475Z,0.40
2019-02-12T05:43:38.942Z,0.40
2019-02-12T05:46:19.720Z,0.40
2019-02-12T05:49:00.389Z,0.50
2019-02-12T05:51:41.370Z,0.50
2019-02-12T05:54:21.887Z,0.50
2019-02-12T05:57:03.084Z,0.60
2019-02-12T05:59:43.829Z,0.70
2019-02-12T06:02:24.642Z,0.70
2019-02-12T06:05:05.945Z,0.80
2019-02-12T06:07:34.917Z,0.80
2019-02-12T06:10:23.071Z,0.90
2019-02-12T06:13:03.484Z,0.90
2019-02-12T06:15:44.291Z,0.90
2019-02-12T06:18:24.866Z,0.80
2019-02-12T06:21:05.908Z,0.80
2019-02-12T06:23:46.672Z,0.80
2019-02-12T06:26:27.488Z,0.80
2019-02-12T06:29:07.920Z,0.80
2019-02-12T06:31:48.665Z,0.80
2019-02-12T06:34:29.429Z,0.80
2019-02-12T06:36:58.393Z,0.80
2019-02-12T06:39:46.557Z,0.90
2019-02-12T06:42:27.209Z,0.90
2019-02-12T06:44:56.325Z,0.90
2019-02-12T06:47:44.491Z,0.80
2019-02-12T06:50:32.672Z,0.80
2019-02-12T06:53:13.990Z,0.70
2019-02-12T06:55:54.892Z,0.70
2019-02-12T06:58:35.716Z,0.60
2019-02-12T07:01:16.506Z,0.60
2019-02-12T07:03:57.689Z,0.60
2019-02-12T07:06:38.341Z,0.60
2019-02-12T07:09:19.406Z,0.60
2019-02-12T07:12:00.260Z,0.60
2019-02-12T07:14:41.151Z,0.60
2019-02-12T07:17:21.975Z,0.70
2019-02-12T07:20:03.146Z,0.80
2019-02-12T07:22:44.415Z,0.80
2019-02-12T07:25:25.381Z,0.90
2019-02-12T07:28:06.168Z,0.80
2019-02-12T07:30:46.734Z,0.80
2019-02-12T07:33:27.947Z,0.90
2019-02-12T07:38:47.979Z,0.80
2019-02-12T07:41:28.413Z,0.80
2019-02-12T07:44:09.460Z,0.70
2019-02-12T07:46:50.184Z,0.70
2019-02-12T07:49:31.002Z,0.70
2019-02-12T07:52:11.792Z,0.70
2019-02-12T07:54:52.576Z,0.70
2019-02-12T08:00:22.917Z,0.70
2019-02-12T08:03:10.284Z,0.70
2019-02-12T08:06:17.579Z,0.80
2019-02-12T08:09:24.838Z,0.80
2019-02-12T08:12:05.391Z,0.90
2019-02-12T08:14:46.045Z,0.90
2019-02-12T08:17:26.781Z,0.90
2019-02-12T08:20:07.471Z,1.10
2019-02-12T08:22:48.290Z,1.30
2019-02-12T08:25:28.994Z,1.60
2019-02-12T08:28:09.751Z,2.00
2019-02-12T08:30:50.546Z,2.30
2019-02-12T08:33:31.660Z,2.70
2019-02-12T08:36:12.564Z,3.00
2019-02-12T08:38:53.403Z,3.40
2019-02-12T08:41:34.141Z,3.60
2019-02-12T08:44:14.932Z,3.80
2019-02-12T08:46:55.640Z,4.00
2019-02-12T08:49:36.453Z,3.90
2019-02-12T08:52:17.352Z,3.90
2019-02-12T08:54:58.338Z,3.80
2019-02-12T08:57:39.705Z,3.70
2019-02-12T09:00:21.037Z,3.70
2019-02-12T09:03:02.073Z,3.70
2019-02-12T09:06:09.372Z,3.70
2019-02-12T09:09:15.956Z,3.80
2019-02-12T09:11:57.264Z,3.90
2019-02-12T09:14:38.203Z,4.00
2019-02-12T09:17:19.292Z,4.20
2019-02-12T09:20:00.368Z,4.20
2019-02-12T09:22:41.231Z,4.30
2019-02-12T09:25:22.131Z,4.30
2019-02-12T09:28:02.811Z,4.40
2019-02-12T09:30:43.635Z,4.50
2019-02-12T09:33:24.814Z,4.40
2019-02-12T09:36:05.808Z,4.50
2019-02-12T09:38:46.416Z,4.40
2019-02-12T09:41:27.173Z,4.40
2019-02-12T09:44:07.893Z,4.30
2019-02-12T09:46:48.854Z,4.20
2019-02-12T09:49:29.974Z,4.30
2019-02-12T09:52:11.226Z,4.30
2019-02-12T09:54:54.076Z,4.40
2019-02-12T09:57:34.309Z,4.50
2019-02-12T10:00:41.647Z,4.50
2019-02-12T10:03:44.248Z,4.60
2019-02-12T10:06:25.443Z,4.60
2019-02-12T10:09:06.212Z,4.60
2019-02-12T10:11:47.009Z,4.60
2019-02-12T10:14:27.789Z,4.70
2019-02-12T10:17:08.896Z,4.80
2019-02-12T10:19:49.703Z,4.90
2019-02-12T10:22:30.447Z,5.00
2019-02-12T10:27:51.625Z,5.10
2019-02-12T10:30:32.974Z,5.20
2019-02-12T10:33:13.333Z,5.30
2019-02-12T10:35:54.357Z,5.40
2019-02-12T10:41:14.369Z,5.50
2019-02-12T10:43:55.472Z,5.40
2019-02-12T10:46:36.329Z,5.60
2019-02-12T10:49:17.282Z,5.60
2019-02-12T10:51:58.344Z,5.70
2019-02-12T10:54:38.990Z,5.80
2019-02-12T10:57:19.989Z,5.90
2019-02-12T11:00:00.877Z,6.00
2019-02-12T11:02:42.099Z,5.90
2019-02-12T11:05:22.749Z,5.90
2019-02-12T11:08:05.731Z,5.90
2019-02-12T11:10:46.259Z,5.90
2019-02-12T11:13:27.037Z,5.90
2019-02-12T11:15:56.058Z,5.90
2019-02-12T11:18:44.208Z,6.00
2019-02-12T11:21:32.277Z,6.00
2019-02-12T11:26:34.961Z,6.10
2019-02-12T11:29:16.068Z,6.20
2019-02-12T11:31:57.269Z,6.30
2019-02-12T11:34:38.160Z,6.30
2019-02-12T11:37:18.867Z,6.20
2019-02-12T11:39:59.608Z,6.20
2019-02-12T11:42:40.394Z,6.20
2019-02-12T11:45:21.136Z,6.10
2019-02-12T11:48:02.001Z,6.10
2019-02-12T11:50:43.056Z,6.00
2019-02-12T11:53:23.740Z,6.00
2019-02-12T11:56:04.612Z,5.90
2019-02-12T11:58:45.445Z,5.90
2019-02-12T12:01:29.496Z,6.00
2019-02-12T12:04:09.988Z,6.00
2019-02-12T12:06:39.297Z,6.10
2019-02-12T12:09:27.448Z,6.20
2019-02-12T12:12:08.326Z,6.20
2019-02-12T12:14:49.261Z,6.30
2019-02-12T12:17:29.726Z,6.40
2019-02-12T12:20:10.446Z,6.40
2019-02-12T12:22:51.357Z,6.40
2019-02-12T12:25:31.906Z,6.40
2019-02-12T12:28:12.392Z,6.30
2019-02-12T12:30:53.624Z,6.30
2019-02-12T12:33:34.016Z,6.20
2019-02-12T12:36:15.168Z,6.20
2019-02-12T12:38:56.506Z,6.30
2019-02-12T12:41:37.176Z,6.50
2019-02-12T12:44:17.859Z,6.60
2019-02-12T12:46:46.873Z,6.80
2019-02-12T12:49:35.115Z,7.00
2019-02-12T12:52:23.325Z,7.20
2019-02-12T12:55:04.150Z,7.20
2019-02-12T12:57:44.932Z,7.30
2019-02-12T13:00:25.468Z,7.20
2019-02-12T13:03:06.210Z,7.20
2019-02-12T13:05:47.091Z,7.30
2019-02-12T13:08:28.147Z,7.30
2019-02-12T13:11:14.966Z,7.40
2019-02-12T13:13:55.376Z,7.30
2019-02-12T13:16:36.043Z,7.20
2019-02-12T13:19:16.682Z,7.10
2019-02-12T13:21:57.711Z,7.00
2019-02-12T13:24:38.837Z,6.90
2019-02-12T13:27:19.561Z,7.00
2019-02-12T13:30:00.521Z,7.00
2019-02-12T13:32:40.986Z,7.20
2019-02-12T13:35:22.183Z,7.30
2019-02-12T13:38:02.978Z,7.40
2019-02-12T13:40:43.759Z,7.30
2019-02-12T13:43:24.880Z,7.40
2019-02-12T13:46:05.636Z,7.40
2019-02-12T13:48:46.337Z,7.40
2019-02-12T13:51:27.244Z,7.40
2019-02-12T13:54:07.814Z,7.40
2019-02-12T13:56:48.483Z,7.50
2019-02-12T13:59:29.590Z,7.70
2019-02-12T14:02:10.269Z,7.80
2019-02-12T14:04:51.196Z,7.90
2019-02-12T14:07:32.093Z,7.90
2019-02-12T14:10:13.121Z,7.90
2019-02-12T14:12:53.798Z,7.90
2019-02-12T14:15:35.013Z,7.80
2019-02-12T14:18:15.888Z,7.90
2019-02-12T14:20:56.672Z,8.00
2019-02-12T14:23:37.711Z,7.90
2019-02-12T14:26:18.212Z,7.70
2019-02-12T14:28:58.883Z,7.90
2019-02-12T14:31:39.753Z,8.10
2019-02-12T14:34:20.578Z,8.10
2019-02-12T14:37:01.826Z,8.10
2019-02-12T14:39:43.051Z,8.00
2019-02-12T14:42:23.869Z,8.10
2019-02-12T14:45:04.575Z,8.50
2019-02-12T14:47:45.353Z,8.70
2019-02-12T14:50:26.294Z,8.70
2019-02-12T14:53:07.289Z,8.60
2019-02-12T14:55:48.210Z,8.60
2019-02-12T14:58:29.412Z,8.40
2019-02-12T15:01:10.433Z,8.30
2019-02-12T15:03:51.163Z,8.20
2019-02-12T15:06:32.236Z,8.00
2019-02-12T15:09:13.187Z,7.60
2019-02-12T15:11:54.501Z,7.30
2019-02-12T15:14:35.278Z,7.20
2019-02-12T15:17:15.946Z,7.00
2019-02-12T15:19:57.586Z,6.90
2019-02-12T15:22:38.747Z,6.60
2019-02-12T15:25:19.157Z,6.40
2019-02-12T15:27:59.877Z,6.30
2019-02-12T15:30:41.073Z,6.10
2019-02-12T15:33:22.073Z,6.00
2019-02-12T15:36:03.202Z,5.90
2019-02-12T15:38:44.120Z,5.90
2019-02-12T15:41:24.789Z,5.80
2019-02-12T15:44:05.753Z,5.70
2019-02-12T15:46:47.133Z,5.60
2019-02-12T15:49:27.491Z,5.60
2019-02-12T15:51:56.373Z,5.50
2019-02-12T15:54:44.532Z,5.50
2019-02-12T15:57:27.169Z,5.40
2019-02-12T16:00:08.549Z,5.40
2019-02-12T16:02:49.573Z,5.30
2019-02-12T16:05:32.700Z,5.30
2019-02-12T16:08:13.630Z,5.20
2019-02-12T16:10:55.107Z,5.10
2019-02-12T16:13:36.903Z,5.10
2019-02-12T16:16:17.681Z,5.00
2019-02-12T16:18:58.518Z,5.00
2019-02-12T16:21:39.493Z,4.90
2019-02-12T16:24:20.165Z,4.80
2019-02-12T16:27:01.363Z,4.80
2019-02-12T16:29:42.169Z,4.80
2019-02-12T16:32:23.276Z,4.70
2019-02-12T16:35:04.282Z,4.60
2019-02-12T16:37:45.482Z,4.50
2019-02-12T16:40:26.187Z,4.30
2019-02-12T16:43:07.080Z,4.10
2019-02-12T16:45:47.999Z,4.00
2019-02-12T16:51:08.813Z,3.80
2019-02-12T16:53:49.499Z,3.70
2019-02-12T16:56:30.482Z,3.70
2019-02-12T16:59:11.914Z,3.60
2019-02-12T17:01:40.972Z,3.50
2019-02-12T17:04:29.132Z,3.50
2019-02-12T17:07:09.903Z,3.40
2019-02-12T17:09:52.351Z,3.30
2019-02-12T17:12:32.971Z,3.20
2019-02-12T17:15:13.436Z,3.20
2019-02-12T17:17:54.581Z,3.10
2019-02-12T17:20:23.664Z,3.10
2019-02-12T17:23:11.942Z,3.00
2019-02-12T17:26:00.479Z,3.00
2019-02-12T17:28:41.804Z,2.90
2019-02-12T17:31:22.913Z,2.90
2019-02-12T17:34:03.740Z,2.90
2019-02-12T17:36:44.409Z,2.80
2019-02-12T17:39:25.861Z,2.70
2019-02-12T17:42:06.319Z,2.60
2019-02-12T17:44:46.982Z,2.50
2019-02-12T17:47:27.368Z,2.40
2019-02-12T17:50:08.310Z,2.40
2019-02-12T17:52:49.196Z,2.30
2019-02-12T17:55:29.794Z,2.30
2019-02-12T17:58:10.836Z,2.30
2019-02-12T18:00:51.620Z,2.30
2019-02-12T18:03:32.221Z,2.30
2019-02-12T18:06:13.104Z,2.30
2019-02-12T18:08:53.960Z,2.20
2019-02-12T18:11:35.705Z,2.20
2019-02-12T18:14:16.856Z,2.10
2019-02-12T18:16:57.984Z,2.10
2019-02-12T18:19:27.000Z,2.10
2019-02-12T18:22:15.212Z,2.10
2019-02-12T18:24:55.849Z,2.10
2019-02-12T18:27:36.660Z,2.10
2019-02-12T18:30:17.271Z,2.10
2019-02-12T18:32:57.980Z,2.10
2019-02-12T18:35:38.743Z,2.10
2019-02-12T18:38:19.575Z,2.10
2019-02-12T18:41:00.509Z,2.10
2019-02-12T18:43:41.258Z,2.00
2019-02-12T18:46:22.022Z,2.00
2019-02-12T18:49:02.797Z,1.90
2019-02-12T18:54:28.558Z,1.90
2019-02-12T18:57:09.064Z,1.80
2019-02-12T18:59:49.447Z,1.80
2019-02-12T19:02:30.648Z,1.70
2019-02-12T19:05:11.390Z,1.70
2019-02-12T19:07:40.529Z,1.60
2019-02-12T19:10:28.688Z,1.60
2019-02-12T19:13:09.956Z,1.50
2019-02-12T19:15:38.992Z,1.50
2019-02-12T19:18:27.326Z,1.50
2019-02-12T19:21:15.498Z,1.50
2019-02-12T19:23:56.328Z,1.40
2019-02-12T19:26:36.940Z,1.40
2019-02-12T19:29:17.499Z,1.40
2019-02-12T19:31:46.559Z,1.30
2019-02-12T19:37:23.861Z,1.30
2019-02-12T19:40:04.808Z,1.30
2019-02-12T19:42:45.654Z,1.30
2019-02-12T19:45:26.281Z,1.30
2019-02-12T19:48:07.212Z,1.30
2019-02-12T19:50:47.999Z,1.20
2019-02-12T19:53:28.788Z,1.00
2019-02-12T19:56:09.532Z,1.00
2019-02-12T19:58:50.286Z,1.00
2019-02-12T20:01:31.073Z,1.00
2019-02-12T20:04:11.947Z,1.00
2019-02-12T20:06:40.933Z,0.90
2019-02-12T20:09:29.112Z,0.80
2019-02-12T20:11:58.142Z,0.80
2019-02-12T20:14:46.236Z,0.80
2019-02-12T20:17:26.786Z,0.90
2019-02-12T20:20:07.940Z,0.90
2019-02-12T20:22:48.834Z,0.90
2019-02-12T20:25:29.464Z,0.80
2019-02-12T20:28:10.423Z,0.80
2019-02-12T20:30:51.405Z,0.70
2019-02-12T20:33:32.230Z,0.60
2019-02-12T20:36:12.965Z,0.60
2019-02-12T20:38:41.982Z,0.60
2019-02-12T20:41:30.149Z,0.60
2019-02-12T20:44:11.443Z,0.60
2019-02-12T20:46:51.955Z,0.50
2019-02-12T20:49:32.698Z,0.50
2019-02-12T20:52:13.274Z,0.50
2019-02-12T20:54:54.212Z,0.50
2019-02-12T20:57:34.993Z,0.40
2019-02-12T21:00:15.852Z,0.40
2019-02-12T21:02:56.665Z,0.40
2019-02-12T21:05:37.458Z,0.50
2019-02-12T21:08:18.362Z,0.40
2019-02-12T21:10:59.118Z,0.30
2019-02-12T21:13:39.992Z,0.30
2019-02-12T21:16:23.557Z,0.30
2019-02-12T21:19:04.827Z,0.20
2019-02-12T21:21:45.640Z,0.20
2019-02-12T21:24:26.320Z,0.20
2019-02-12T21:27:07.187Z,0.20
2019-02-12T21:29:48.290Z,0.20
2019-02-12T21:32:17.325Z,0.20
2019-02-12T21:35:05.997Z,0.30
2019-02-12T21:37:54.167Z,0.40
2019-02-12T21:40:36.401Z,0.40
2019-02-12T21:43:17.448Z,0.50
2019-02-12T21:45:46.417Z,0.60
2019-02-12T21:48:34.526Z,0.60
2019-02-12T21:51:15.320Z,0.60
2019-02-12T21:53:56.157Z,0.60
2019-02-12T21:56:36.856Z,0.70
2019-02-12T21:59:17.626Z,0.70
2019-02-12T22:04:43.428Z,0.70
2019-02-12T22:07:24.108Z,0.60
2019-02-12T22:10:04.924Z,0.60
2019-02-12T22:12:45.775Z,0.60
2019-02-12T22:15:26.621Z,0.50
2019-02-12T22:18:07.709Z,0.50
2019-02-12T22:20:48.483Z,0.40
2019-02-12T22:23:29.358Z,0.40
2019-02-12T22:26:10.162Z,0.40
2019-02-12T22:28:50.781Z,0.40
2019-02-12T22:31:31.648Z,0.30
2019-02-12T22:34:12.449Z,0.30
2019-02-12T22:36:53.036Z,0.30
2019-02-12T22:39:33.781Z,0.20
2019-02-12T22:42:14.776Z,0.20
2019-02-12T22:44:55.288Z,0.10
2019-02-12T22:47:36.164Z,0.00
2019-02-12T22:50:16.904Z,-0.10
2019-02-12T22:52:57.811Z,-0.20
2019-02-12T22:55:38.664Z,-0.30
2019-02-12T22:58:19.538Z,-0.30
2019-02-12T23:01:05.201Z,-0.30
2019-02-12T23:03:46.111Z,-0.30
2019-02-12T23:06:26.869Z,-0.20
2019-02-12T23:11:57.157Z,-0.30
2019-02-12T23:14:45.327Z,-0.40
2019-02-12T23:17:33.481Z,-0.40
2019-02-12T23:20:21.752Z,-0.40
2019-02-12T23:23:03.117Z,-0.40
2019-02-12T23:25:43.868Z,-0.40
2019-02-12T23:28:24.615Z,-0.50
2019-02-12T23:31:05.292Z,-0.60
2019-02-12T23:33:46.017Z,-0.60
2019-02-12T23:36:27.073Z,-0.60
2019-02-12T23:39:08.329Z,-0.60
2019-02-12T23:41:49.480Z,-0.50
2019-02-12T23:44:30.295Z,-0.50
2019-02-12T23:47:11.177Z,-0.50
2019-02-12T23:49:51.718Z,-0.50
2019-02-12T23:52:32.437Z,-0.40
2019-02-12T23:55:13.765Z,-0.30
2019-02-12T23:57:54.652Z,-0.10
